createdAt,value
2022-12-26T00:01:06.033Z,100170.00
2022-12-26T00:03:33.088Z,100166.00
2022-12-26T00:06:00.243Z,100166.00
2022-12-26T00:08:27.457Z,100163.00
2022-12-26T00:10:54.421Z,100159.00
2022-12-26T00:13:39.659Z,100155.00
2022-12-26T00:16:19.962Z,100157.00
2022-12-26T00:18:48.624Z,100153.00
2022-12-26T00:21:17.642Z,100155.00
2022-12-26T00:23:45.963Z,100138.00
2022-12-26T00:26:17.352Z,100153.00
2022-12-26T00:28:45.437Z,100155.00
2022-12-26T00:31:24.045Z,100145.00
2022-12-26T00:33:51.238Z,100144.00
2022-12-26T00:36:22.990Z,100148.00
2022-12-26T00:38:51.573Z,100156.00
2022-12-26T00:41:21.522Z,100153.00
2022-12-26T00:43:49.887Z,100145.00
2022-12-26T00:46:18.680Z,100127.00
2022-12-26T00:48:46.773Z,100120.00
2022-12-26T00:51:14.827Z,100118.00
2022-12-26T00:53:42.233Z,100110.00
2022-12-26T00:56:09.640Z,100107.00
2022-12-26T00:58:37.086Z,100102.00
2022-12-26T01:01:22.698Z,100067.00
2022-12-26T01:03:51.318Z,100094.00
2022-12-26T01:06:21.329Z,100096.00
2022-12-26T01:08:48.442Z,100111.00
2022-12-26T01:11:37.393Z,100110.00
2022-12-26T01:14:06.513Z,100103.00
2022-12-26T01:16:33.631Z,100092.00
2022-12-26T01:19:00.679Z,100082.00
2022-12-26T01:21:27.600Z,100079.00
2022-12-26T01:23:56.187Z,100080.00
2022-12-26T01:26:23.270Z,100063.00
2022-12-26T01:28:52.546Z,100058.00
2022-12-26T01:31:21.705Z,100063.00
2022-12-26T01:33:49.318Z,100046.00
2022-12-26T01:36:17.900Z,100046.00
2022-12-26T01:38:45.908Z,100037.00
2022-12-26T01:41:20.485Z,100033.00
2022-12-26T01:44:02.692Z,100022.00
2022-12-26T01:46:40.563Z,100021.00
2022-12-26T01:49:21.367Z,100008.00
2022-12-26T01:51:58.454Z,100009.00
2022-12-26T01:54:37.913Z,100002.00
2022-12-26T01:57:17.420Z,99997.00
2022-12-26T01:59:46.631Z,99990.00
2022-12-26T02:02:15.615Z,99983.00
2022-12-26T02:05:07.973Z,99988.00
2022-12-26T02:07:39.098Z,99975.00
2022-12-26T02:10:13.354Z,99968.00
2022-12-26T02:12:41.230Z,99960.00
2022-12-26T02:15:15.586Z,99959.00
2022-12-26T02:17:43.151Z,99959.00
2022-12-26T02:20:17.363Z,99868.00
2022-12-26T02:23:30.081Z,99939.00
2022-12-26T02:26:42.945Z,99932.00
2022-12-26T02:29:37.936Z,99925.00
2022-12-26T02:32:28.069Z,99908.00
2022-12-26T02:35:15.947Z,99884.00
2022-12-26T02:38:35.939Z,99877.00
2022-12-26T02:41:28.970Z,99872.00
2022-12-26T02:44:55.462Z,99780.00
2022-12-26T02:47:53.266Z,99843.00
2022-12-26T02:51:25.179Z,99860.00
2022-12-26T02:54:49.293Z,99835.00
2022-12-26T02:57:42.296Z,99827.00
2022-12-26T03:00:39.298Z,99819.00
2022-12-26T03:03:40.635Z,99805.00
2022-12-26T03:06:43.922Z,99798.00
2022-12-26T03:09:44.905Z,99811.00
2022-12-26T03:12:39.168Z,99804.00
2022-12-26T03:15:12.495Z,99806.00
2022-12-26T03:17:46.417Z,99795.00
2022-12-26T03:20:20.245Z,99796.00
2022-12-26T03:22:58.072Z,99787.00
2022-12-26T03:26:17.622Z,99780.00
2022-12-26T03:28:44.896Z,99778.00
2022-12-26T03:31:15.162Z,99761.00
2022-12-26T03:34:05.170Z,99750.00
2022-12-26T03:37:02.170Z,99748.00
2022-12-26T03:40:27.675Z,99736.00
2022-12-26T03:43:29.484Z,99732.00
2022-12-26T03:46:54.663Z,99720.00
2022-12-26T03:49:59.885Z,99720.00
2022-12-26T03:53:10.325Z,99717.00
2022-12-26T03:56:19.853Z,99716.00
2022-12-26T03:59:27.253Z,99714.00
2022-12-26T04:02:19.511Z,99708.00
2022-12-26T04:05:05.537Z,99691.00
2022-12-26T04:08:02.250Z,99696.00
2022-12-26T04:11:03.183Z,99704.00
2022-12-26T04:13:57.774Z,99683.00
2022-12-26T04:17:05.154Z,99688.00
2022-12-26T04:20:20.299Z,99685.00
2022-12-26T04:23:22.484Z,99688.00
2022-12-26T04:26:33.637Z,99677.00
2022-12-26T04:29:19.178Z,99663.00
2022-12-26T04:32:17.023Z,99647.00
2022-12-26T04:35:30.486Z,99658.00
2022-12-26T04:38:17.817Z,99644.00
2022-12-26T04:41:10.179Z,99648.00
2022-12-26T04:43:57.448Z,99646.00
2022-12-26T04:46:26.014Z,99633.00
2022-12-26T04:49:13.707Z,99640.00
2022-12-26T04:51:40.658Z,99630.00
2022-12-26T04:54:07.878Z,99628.00
2022-12-26T04:56:35.234Z,99616.00
2022-12-26T04:59:02.251Z,99613.00
2022-12-26T05:01:48.050Z,99610.00
2022-12-26T05:04:36.871Z,99596.00
2022-12-26T05:07:35.004Z,99592.00
2022-12-26T05:10:04.250Z,99594.00
2022-12-26T05:12:31.258Z,99584.00
2022-12-26T05:14:58.158Z,99584.00
2022-12-26T05:17:43.299Z,99581.00
2022-12-26T05:20:31.743Z,99569.00
2022-12-26T05:23:20.789Z,99579.00
2022-12-26T05:26:07.671Z,99568.00
2022-12-26T05:28:43.603Z,99564.00
2022-12-26T05:31:16.560Z,99556.00
2022-12-26T05:34:02.157Z,99554.00
2022-12-26T05:36:56.515Z,99553.00
2022-12-26T05:39:23.628Z,99548.00
2022-12-26T05:41:50.649Z,99535.00
2022-12-26T05:44:20.311Z,99530.00
2022-12-26T05:46:47.349Z,99530.00
2022-12-26T05:49:14.258Z,99522.00
2022-12-26T05:51:41.292Z,99526.00
2022-12-26T05:54:08.251Z,99517.00
2022-12-26T05:56:35.224Z,99512.00
2022-12-26T05:59:02.670Z,99511.00
2022-12-26T06:01:31.022Z,99503.00
2022-12-26T06:04:00.378Z,99504.00
2022-12-26T06:06:27.690Z,99495.00
2022-12-26T06:08:56.860Z,99508.00
2022-12-26T06:11:26.447Z,99495.00
2022-12-26T06:13:54.925Z,99491.00
2022-12-26T06:27:35.726Z,99476.00
2022-12-26T06:30:02.744Z,99469.00
2022-12-26T06:32:30.664Z,99455.00
2022-12-26T06:34:57.597Z,99466.00
2022-12-26T06:37:24.603Z,99460.00
2022-12-26T06:39:51.549Z,99461.00
2022-12-26T06:42:18.467Z,99454.00
2022-12-26T06:44:45.422Z,99451.00
2022-12-26T06:47:12.367Z,99453.00
2022-12-26T06:49:39.414Z,99450.00
2022-12-26T06:52:08.883Z,99439.00
2022-12-26T06:54:35.864Z,99439.00
2022-12-26T06:57:02.953Z,99441.00
2022-12-26T06:59:29.832Z,99439.00
2022-12-26T07:01:56.884Z,99425.00
2022-12-26T07:04:24.907Z,99424.00
2022-12-26T07:06:51.832Z,99427.00
2022-12-26T07:09:19.905Z,99423.00
2022-12-26T07:11:49.955Z,99414.00
2022-12-26T07:14:17.557Z,99421.00
2022-12-26T07:16:45.911Z,99415.00
2022-12-26T07:19:14.883Z,99413.00
2022-12-26T07:21:43.161Z,99425.00
2022-12-26T07:24:21.555Z,99426.00
2022-12-26T07:26:49.719Z,99411.00
2022-12-26T07:29:17.263Z,99414.00
2022-12-26T07:31:44.770Z,99416.00
2022-12-26T07:34:12.056Z,99389.00
2022-12-26T07:36:41.294Z,99415.00
2022-12-26T07:39:11.571Z,99418.00
2022-12-26T07:41:56.692Z,99392.00
2022-12-26T07:44:25.480Z,99400.00
2022-12-26T07:46:53.172Z,99402.00
2022-12-26T07:49:20.169Z,99393.00
2022-12-26T07:51:47.129Z,99390.00
2022-12-26T07:54:14.791Z,99388.00
2022-12-26T07:56:42.560Z,99394.00
2022-12-26T07:59:17.831Z,99398.00
2022-12-26T08:01:44.969Z,99403.00
2022-12-26T08:04:13.547Z,99396.00
2022-12-26T08:06:40.693Z,99383.00
2022-12-26T08:09:08.238Z,99388.00
2022-12-26T08:11:35.907Z,99377.00
2022-12-26T08:14:03.396Z,99382.00
2022-12-26T08:16:32.825Z,99374.00
2022-12-26T08:19:04.040Z,99368.00
2022-12-26T08:21:31.410Z,99371.00
2022-12-26T08:23:58.320Z,99361.00
2022-12-26T08:26:26.360Z,99365.00
2022-12-26T08:28:55.548Z,99365.00
2022-12-26T08:33:57.692Z,99365.00
2022-12-26T08:36:25.417Z,99362.00
2022-12-26T08:38:52.682Z,99358.00
2022-12-26T08:41:20.100Z,99357.00
2022-12-26T08:44:25.627Z,99354.00
2022-12-26T08:46:41.005Z,99357.00
2022-12-26T08:49:07.941Z,99351.00
2022-12-26T08:51:34.970Z,99358.00
2022-12-26T08:54:02.504Z,99358.00
2022-12-26T08:56:29.655Z,99337.00
2022-12-26T08:58:59.359Z,99359.00
2022-12-26T09:01:31.601Z,99345.00
2022-12-26T09:04:02.586Z,99334.00
2022-12-26T09:06:35.260Z,99353.00
2022-12-26T09:09:04.716Z,99352.00
2022-12-26T09:11:32.154Z,99356.00
2022-12-26T09:14:03.235Z,99346.00
2022-12-26T09:16:39.350Z,99333.00
2022-12-26T09:19:11.697Z,99352.00
2022-12-26T09:21:39.195Z,99344.00
2022-12-26T09:24:11.688Z,99360.00
2022-12-26T09:26:39.375Z,99353.00
2022-12-26T09:29:06.962Z,99358.00
2022-12-26T09:31:35.758Z,99352.00
2022-12-26T09:34:05.397Z,99348.00
2022-12-26T09:36:38.167Z,99354.00
2022-12-26T09:39:06.779Z,99357.00
2022-12-26T09:41:48.708Z,99352.00
2022-12-26T09:44:48.351Z,99350.00
2022-12-26T09:47:44.820Z,99343.00
2022-12-26T09:50:28.240Z,99331.00
2022-12-26T09:53:30.841Z,99335.00
2022-12-26T09:56:04.033Z,99330.00
2022-12-26T09:58:40.190Z,99328.00
2022-12-26T10:01:23.579Z,99327.00
2022-12-26T10:03:56.797Z,99329.00
2022-12-26T10:19:54.020Z,99328.00
2022-12-26T10:22:57.992Z,99324.00
2022-12-26T10:26:17.040Z,99316.00
2022-12-26T10:28:55.403Z,99294.00
2022-12-26T10:31:41.208Z,99295.00
2022-12-26T10:34:18.572Z,99289.00
2022-12-26T10:37:12.727Z,99287.00
2022-12-26T10:39:56.970Z,99296.00
2022-12-26T10:42:40.237Z,99289.00
2022-12-26T10:45:40.065Z,99282.00
2022-12-26T10:48:11.056Z,99290.00
2022-12-26T10:50:40.255Z,99294.00
2022-12-26T10:53:13.114Z,99292.00
2022-12-26T10:55:40.135Z,99294.00
2022-12-26T10:58:20.680Z,99292.00
2022-12-26T11:00:47.935Z,99297.00
2022-12-26T11:03:20.179Z,99288.00
2022-12-26T11:06:07.680Z,99281.00
2022-12-26T11:08:52.551Z,99283.00
2022-12-26T11:11:50.993Z,99286.00
2022-12-26T11:14:40.944Z,99287.00
2022-12-26T11:17:34.627Z,99289.00
2022-12-26T11:20:16.848Z,99291.00
2022-12-26T11:22:46.678Z,99268.00
2022-12-26T11:25:30.460Z,99295.00
2022-12-26T11:27:59.856Z,99291.00
2022-12-26T11:30:40.301Z,99297.00
2022-12-26T11:33:14.008Z,99292.00
2022-12-26T11:36:36.741Z,99304.00
2022-12-26T11:39:23.696Z,99276.00
2022-12-26T11:41:53.083Z,99280.00
2022-12-26T11:44:38.417Z,99300.00
2022-12-26T11:47:14.002Z,99313.00
2022-12-26T11:50:09.897Z,99294.00
2022-12-26T11:53:03.256Z,99304.00
2022-12-26T11:55:33.487Z,99299.00
2022-12-26T11:58:09.629Z,99298.00
2022-12-26T12:00:51.742Z,99306.00
2022-12-26T12:03:48.838Z,99320.00
2022-12-26T12:06:29.785Z,99320.00
2022-12-26T12:09:44.187Z,99325.00
2022-12-26T12:12:48.269Z,99331.00
2022-12-26T12:15:20.923Z,99331.00
2022-12-26T12:18:57.224Z,99337.00
2022-12-26T12:22:08.433Z,99345.00
2022-12-26T12:25:09.062Z,99347.00
2022-12-26T12:27:53.814Z,99355.00
2022-12-26T12:30:46.214Z,99336.00
2022-12-26T12:34:00.812Z,99350.00
2022-12-26T12:36:52.233Z,99343.00
2022-12-26T12:39:44.909Z,99352.00
2022-12-26T12:42:29.728Z,99358.00
2022-12-26T12:45:02.552Z,99352.00
2022-12-26T12:48:07.331Z,99343.00
2022-12-26T12:51:09.758Z,99338.00
2022-12-26T12:54:07.496Z,99336.00
2022-12-26T12:57:10.036Z,99337.00
2022-12-26T13:00:14.809Z,99329.00
2022-12-26T13:02:53.869Z,99325.00
2022-12-26T13:05:45.122Z,99333.00
2022-12-26T13:08:40.239Z,99338.00
2022-12-26T13:11:38.325Z,99342.00
2022-12-26T13:14:24.750Z,99340.00
2022-12-26T13:17:11.385Z,99328.00
2022-12-26T13:19:51.541Z,99343.00
2022-12-26T13:23:15.018Z,99354.00
2022-12-26T13:25:49.217Z,99361.00
2022-12-26T13:28:29.063Z,99360.00
2022-12-26T13:30:56.811Z,99366.00
2022-12-26T13:33:24.215Z,99358.00
2022-12-26T13:36:02.557Z,99371.00
2022-12-26T13:39:01.396Z,99375.00
2022-12-26T13:41:50.028Z,99382.00
2022-12-26T13:44:19.991Z,99372.00
2022-12-26T13:46:46.920Z,99364.00
2022-12-26T13:49:37.045Z,99385.00
2022-12-26T13:52:16.069Z,99375.00
2022-12-26T13:54:50.418Z,99376.00
2022-12-26T13:57:41.905Z,99387.00
2022-12-26T14:00:12.571Z,99379.00
2022-12-26T14:03:19.612Z,99385.00
2022-12-26T14:06:24.939Z,99382.00
2022-12-26T14:09:16.481Z,99373.00
2022-12-26T14:11:55.405Z,99384.00
2022-12-26T14:14:39.956Z,99382.00
2022-12-26T14:17:41.012Z,99394.00
2022-12-26T14:20:37.333Z,99386.00
2022-12-26T14:23:32.471Z,99382.00
2022-12-26T14:26:08.106Z,99388.00
2022-12-26T14:29:10.287Z,99370.00
2022-12-26T14:31:59.851Z,99381.00
2022-12-26T14:34:49.910Z,99398.00
2022-12-26T14:37:47.124Z,99397.00
2022-12-26T14:40:16.873Z,99396.00
2022-12-26T14:43:17.550Z,99401.00
2022-12-26T14:45:53.673Z,99405.00
2022-12-26T14:48:24.054Z,99413.00
2022-12-26T14:50:52.945Z,99416.00
2022-12-26T14:53:28.900Z,99415.00
2022-12-26T14:56:07.667Z,99419.00
2022-12-26T14:59:10.423Z,99435.00
2022-12-26T15:01:37.423Z,99432.00
2022-12-26T15:04:10.402Z,99437.00
2022-12-26T15:07:08.304Z,99447.00
2022-12-26T15:10:02.975Z,99425.00
2022-12-26T15:12:56.800Z,99440.00
2022-12-26T15:15:47.540Z,99420.00
2022-12-26T15:19:04.351Z,99413.00
2022-12-26T15:22:08.616Z,99412.00
2022-12-26T15:25:20.272Z,99423.00
2022-12-26T15:28:15.690Z,99427.00
2022-12-26T15:31:07.106Z,99425.00
2022-12-26T15:33:57.452Z,99422.00
2022-12-26T15:50:10.678Z,99430.00
2022-12-26T15:53:03.758Z,99413.00
2022-12-26T15:56:24.878Z,99417.00
2022-12-26T15:59:41.791Z,99411.00
2022-12-26T16:02:27.516Z,99420.00
2022-12-26T16:05:09.058Z,99431.00
2022-12-26T16:07:51.582Z,99421.00
2022-12-26T16:10:24.667Z,99432.00
2022-12-26T16:13:11.998Z,99435.00
2022-12-26T16:15:56.634Z,99427.00
2022-12-26T16:18:30.931Z,99436.00
2022-12-26T16:21:25.894Z,99428.00
2022-12-26T16:23:57.921Z,99434.00
2022-12-26T16:26:37.651Z,99433.00
2022-12-26T16:29:05.923Z,99435.00
2022-12-26T16:31:33.335Z,99408.00
2022-12-26T16:34:01.527Z,99435.00
2022-12-26T16:36:35.721Z,99442.00
2022-12-26T16:39:09.933Z,99450.00
2022-12-26T16:42:00.716Z,99456.00
2022-12-26T16:44:32.614Z,99452.00
2022-12-26T16:47:10.465Z,99449.00
2022-12-26T16:49:41.646Z,99453.00
2022-12-26T16:52:43.675Z,99452.00
2022-12-26T16:55:36.229Z,99451.00
2022-12-26T16:58:22.695Z,99434.00
2022-12-26T17:01:08.494Z,99461.00
2022-12-26T17:03:54.284Z,99459.00
2022-12-26T17:06:54.895Z,99454.00
2022-12-26T17:09:26.663Z,99445.00
2022-12-26T17:12:02.604Z,99455.00
2022-12-26T17:14:36.399Z,99463.00
2022-12-26T17:17:37.621Z,99450.00
2022-12-26T17:20:22.991Z,99458.00
2022-12-26T17:22:51.353Z,99464.00
2022-12-26T17:25:20.475Z,99448.00
2022-12-26T17:28:08.741Z,99459.00
2022-12-26T17:30:45.490Z,99463.00
2022-12-26T17:33:24.748Z,99463.00
2022-12-26T17:38:54.956Z,99466.00
2022-12-26T17:41:22.311Z,99470.00
2022-12-26T17:43:50.267Z,99472.00
2022-12-26T17:46:18.541Z,99471.00
2022-12-26T17:48:45.913Z,99473.00
2022-12-26T17:51:18.038Z,99480.00
2022-12-26T17:53:51.607Z,99469.00
2022-12-26T17:56:27.352Z,99461.00
2022-12-26T17:58:55.570Z,99474.00
2022-12-26T18:01:22.720Z,99468.00
2022-12-26T18:03:53.121Z,99455.00
2022-12-26T18:06:22.229Z,99471.00
2022-12-26T18:08:49.914Z,99464.00
2022-12-26T18:11:16.917Z,99470.00
2022-12-26T18:13:44.406Z,99471.00
2022-12-26T18:16:25.096Z,99480.00
2022-12-26T18:18:52.169Z,99471.00
2022-12-26T18:21:19.139Z,99472.00
2022-12-26T18:23:47.947Z,99474.00
2022-12-26T18:26:26.061Z,99459.00
2022-12-26T18:28:54.071Z,99460.00
2022-12-26T18:31:24.088Z,99456.00
2022-12-26T18:33:52.753Z,99464.00
2022-12-26T18:36:23.254Z,99457.00
2022-12-26T18:38:50.293Z,99469.00
2022-12-26T18:41:21.731Z,99468.00
2022-12-26T18:43:51.039Z,99469.00
2022-12-26T18:46:31.257Z,99460.00
2022-12-26T18:48:59.595Z,99454.00
2022-12-26T18:51:30.555Z,99420.00
2022-12-26T18:53:57.489Z,99450.00
2022-12-26T18:56:24.631Z,99443.00
2022-12-26T18:58:57.417Z,99442.00
2022-12-26T19:01:26.161Z,99443.00
2022-12-26T19:03:54.111Z,99438.00
2022-12-26T19:06:28.302Z,99443.00
2022-12-26T19:08:55.992Z,99417.00
2022-12-26T19:11:23.400Z,99428.00
2022-12-26T19:13:54.196Z,99431.00
2022-12-26T19:16:27.064Z,99418.00
2022-12-26T19:18:54.921Z,99431.00
2022-12-26T19:21:22.360Z,99422.00
2022-12-26T19:23:49.255Z,99428.00
2022-12-26T19:26:18.970Z,99423.00
2022-12-26T19:28:55.060Z,99430.00
2022-12-26T19:31:23.306Z,99421.00
2022-12-26T19:33:50.556Z,99432.00
2022-12-26T19:36:17.519Z,99424.00
2022-12-26T19:38:44.425Z,99433.00
2022-12-26T19:41:15.173Z,99430.00
2022-12-26T19:43:42.156Z,99431.00
2022-12-26T19:46:12.772Z,99428.00
2022-12-26T19:48:40.036Z,99425.00
2022-12-26T19:51:14.064Z,99430.00
2022-12-26T19:53:42.346Z,99434.00
2022-12-26T19:56:18.196Z,99440.00
2022-12-26T19:58:49.523Z,99418.00
2022-12-26T20:01:25.297Z,99437.00
2022-12-26T20:03:57.819Z,99440.00
2022-12-26T20:06:27.283Z,99429.00
2022-12-26T20:09:01.338Z,99447.00
2022-12-26T20:11:35.424Z,99440.00
2022-12-26T20:14:04.640Z,99458.00
2022-12-26T20:17:04.455Z,99453.00
2022-12-26T20:19:24.071Z,99452.00
2022-12-26T20:21:51.716Z,99451.00
2022-12-26T20:24:21.239Z,99447.00
2022-12-26T20:26:49.309Z,99452.00
2022-12-26T20:29:17.687Z,99452.00
2022-12-26T20:31:47.338Z,99447.00
2022-12-26T20:34:16.483Z,99443.00
2022-12-26T20:36:44.007Z,99445.00
2022-12-26T20:39:18.883Z,99460.00
2022-12-26T20:41:47.160Z,99449.00
2022-12-26T20:44:16.383Z,99439.00
2022-12-26T20:46:45.260Z,99444.00
2022-12-26T20:49:12.940Z,99443.00
2022-12-26T20:51:43.755Z,99442.00
2022-12-26T20:54:13.632Z,99439.00
2022-12-26T20:56:41.375Z,99441.00
2022-12-26T20:59:08.728Z,99457.00
2022-12-26T21:01:37.505Z,99451.00
2022-12-26T21:04:05.021Z,99463.00
2022-12-26T21:06:35.769Z,99466.00
2022-12-26T21:09:05.462Z,99465.00
2022-12-26T21:11:38.821Z,99459.00
2022-12-26T21:14:12.219Z,99467.00
2022-12-26T21:16:46.834Z,99463.00
2022-12-26T21:19:15.629Z,99465.00
2022-12-26T21:21:53.104Z,99468.00
2022-12-26T21:24:28.094Z,99481.00
2022-12-26T21:26:55.995Z,99500.00
2022-12-26T21:29:30.475Z,99499.00
2022-12-26T21:32:00.002Z,99501.00
2022-12-26T21:34:31.414Z,99489.00
2022-12-26T21:37:17.754Z,99469.00
2022-12-26T21:39:47.104Z,99507.00
2022-12-26T21:42:14.019Z,99499.00
2022-12-26T21:44:40.970Z,99503.00
2022-12-26T21:47:08.468Z,99504.00
2022-12-26T21:49:37.041Z,99517.00
2022-12-26T21:52:06.962Z,99491.00
2022-12-26T21:54:53.209Z,99529.00
2022-12-26T21:57:21.040Z,99547.00
2022-12-26T21:59:58.766Z,99551.00
2022-12-26T22:02:51.647Z,99543.00
2022-12-26T22:05:21.694Z,99552.00
2022-12-26T22:07:56.777Z,99551.00
2022-12-26T22:10:46.213Z,99569.00
2022-12-26T22:13:13.382Z,99577.00
2022-12-26T22:16:03.527Z,99586.00
2022-12-26T22:18:41.830Z,99591.00
2022-12-26T22:21:18.176Z,99612.00
2022-12-26T22:23:45.882Z,99605.00
2022-12-26T22:26:15.562Z,99616.00
2022-12-26T22:41:23.420Z,99649.00
2022-12-26T22:43:50.656Z,99647.00
2022-12-26T22:46:18.118Z,99639.00
2022-12-26T22:48:46.028Z,99643.00
2022-12-26T22:51:23.241Z,99641.00
2022-12-26T22:53:54.694Z,99647.00
2022-12-26T22:56:21.860Z,99648.00
2022-12-26T22:59:03.970Z,99667.00
2022-12-26T23:01:32.244Z,99654.00
2022-12-26T23:04:02.187Z,99639.00
2022-12-26T23:06:33.898Z,99612.00
2022-12-26T23:09:05.986Z,99621.00
2022-12-26T23:11:35.911Z,99641.00
2022-12-26T23:14:06.499Z,99616.00
2022-12-26T23:16:50.682Z,99645.00
2022-12-26T23:19:53.127Z,99628.00
2022-12-26T23:22:20.456Z,99625.00
2022-12-26T23:24:47.534Z,99640.00
2022-12-26T23:27:33.133Z,99644.00
2022-12-26T23:30:18.226Z,99638.00
2022-12-26T23:32:51.841Z,99644.00
2022-12-26T23:35:21.172Z,99651.00
2022-12-26T23:37:48.528Z,99657.00
2022-12-26T23:40:17.511Z,99638.00
2022-12-26T23:42:44.471Z,99651.00
2022-12-26T23:45:14.280Z,99657.00
2022-12-26T23:47:44.595Z,99647.00
2022-12-26T23:50:14.386Z,99657.00
2022-12-26T23:52:41.661Z,99660.00
2022-12-26T23:55:10.039Z,99673.00
2022-12-26T23:57:37.086Z,99649.00
